Orlando, Oklahoma
Current Conditions -  °F | °C
As of 6:53 PM on Friday 24 Oct 2014 (Local Time) from KSWO Reporting Station
Clear Clear  
Wind Chill: 74°   Ceiling: Unl
Heat Index: 74°   Visibility: 10mi
Dew Point: 62°   Wind: 8mph
Humidity: 66%   Direction: 170°S
Pressure: 30.01"   Gusts: NA
Location:  36.15°N, 97.38°W
Report Text: KSWO 242353Z AUTO 17007KT 10SM CLR 23/17 A3001 RMK AO2 SLP152 T02330167 10300 20233 58001
Loading
Personal Weather Stations






























Interactive Weather Map
Tropical Storm Tracking
New forecast layout! Learn more

10-Day Weather Forecast

Advertisements
Track Severe Weather on mobile